Time;durP1;ratioP1;P1;durP2;ratioP2;P2;SDS_P1;SDS_P2;PMS_P1;PMS_P2;Temp;Humidity;BMP_temperature;BMP_pressure;BME280_temperature;BME280_humidity;BME280_pressure;Samples;Min_cycle;Max_cycle;Signal;HPM_P1;HPM_P2
2023/04/02 00:01:19;;;;;;;0.80;0.80;;;13.40;78.30;;;;;;6213007;23;20389;-71
2023/04/02 00:04:07;;;;;;;1.07;0.90;;;13.30;78.70;;;;;;6213215;23;20404;-69
2023/04/02 00:06:43;;;;;;;1.83;1.13;;;13.30;78.80;;;;;;6212487;23;20392;-69
2023/04/02 00:09:40;;;;;;;1.40;1.30;;;13.40;78.80;;;;;;6212588;23;20397;-70
2023/04/02 00:12:28;;;;;;;1.23;1.00;;;13.30;79.10;;;;;;6212938;23;20389;-70
2023/04/02 00:14:56;;;;;;;1.00;0.77;;;13.30;79.20;;;;;;6208618;23;20425;-69
2023/04/02 00:17:25;;;;;;;1.23;0.93;;;13.30;79.00;;;;;;6211845;23;20404;-70
2023/04/02 00:19:58;;;;;;;1.77;0.70;;;13.40;79.00;;;;;;6212396;23;20408;-69
2023/04/02 00:22:28;;;;;;;1.63;1.00;;;13.40;78.90;;;;;;6212326;23;20436;-71
2023/04/02 00:24:56;;;;;;;1.13;1.07;;;13.50;79.00;;;;;;6213144;23;20399;-70
2023/04/02 00:27:24;;;;;;;1.43;1.07;;;13.50;78.90;;;;;;6212732;23;21036;-70
2023/04/02 00:29:53;;;;;;;1.77;1.00;;;13.50;78.70;;;;;;6211535;23;20433;-72
2023/04/02 00:32:27;;;;;;;2.37;0.97;;;13.40;78.60;;;;;;6213028;23;20817;-70
2023/04/02 00:34:55;;;;;;;1.93;1.40;;;13.40;78.80;;;;;;6212188;23;20436;-70
2023/04/02 00:37:26;;;;;;;0.80;0.80;;;13.40;78.70;;;;;;6212881;23;20440;-70
2023/04/02 00:39:59;;;;;;;3.13;1.03;;;13.40;78.80;;;;;;6212597;23;20483;-70
2023/04/02 00:42:26;;;;;;;0.87;0.87;;;13.40;78.70;;;;;;6212804;23;20413;-70
2023/04/02 00:44:54;;;;;;;1.57;0.77;;;13.50;78.70;;;;;;6212379;23;20405;-70
2023/04/02 00:47:23;;;;;;;1.70;1.00;;;13.50;78.50;;;;;;6212467;23;20937;-71
2023/04/02 00:49:56;;;;;;;1.00;0.90;;;13.50;78.30;;;;;;6159191;23;20409;-70
2023/04/02 00:52:27;;;;;;;1.00;0.73;;;13.40;78.10;;;;;;6211964;23;20446;-71
2023/04/02 00:55:03;;;;;;;1.20;1.00;;;13.40;78.20;;;;;;6212332;23;20396;-71
2023/04/02 00:57:32;;;;;;;1.30;0.87;;;13.40;78.20;;;;;;6211762;23;20416;-70
2023/04/02 01:00:02;;;;;;;1.70;0.67;;;13.40;78.10;;;;;;6212179;23;20463;-72
2023/04/02 01:02:32;;;;;;;1.13;0.77;;;13.40;77.90;;;;;;6212102;23;20436;-71
2023/04/02 01:05:02;;;;;;;0.50;0.50;;;13.40;77.70;;;;;;6211824;23;20405;-70
2023/04/02 01:07:56;;;;;;;0.80;0.70;;;13.30;77.80;;;;;;6212295;23;20853;-71
2023/04/02 01:10:41;;;;;;;1.20;0.90;;;13.40;77.50;;;;;;6212089;23;20663;-70
2023/04/02 01:13:18;;;;;;;0.80;0.80;;;13.40;77.50;;;;;;6211640;23;20395;-70
2023/04/02 01:15:52;;;;;;;1.33;0.80;;;13.30;77.30;;;;;;6211475;23;20879;-71
2023/04/02 01:18:50;;;;;;;1.93;0.80;;;13.30;77.00;;;;;;6211477;23;20391;-71
2023/04/02 01:21:35;;;;;;;1.70;0.90;;;13.30;76.90;;;;;;6211740;23;20412;-70
2023/04/02 01:24:04;;;;;;;1.17;0.80;;;13.30;76.70;;;;;;6212294;23;20397;-71
2023/04/02 01:26:45;;;;;;;0.67;0.67;;;13.30;76.90;;;;;;6211375;23;20987;-71
2023/04/02 01:29:15;;;;;;;1.33;1.17;;;13.30;76.40;;;;;;6211589;23;20384;-70
2023/04/02 01:31:44;;;;;;;1.17;0.93;;;13.30;76.20;;;;;;6212237;23;20492;-71
2023/04/02 01:34:15;;;;;;;0.73;0.73;;;13.30;76.10;;;;;;6211519;23;20412;-71
2023/04/02 01:36:52;;;;;;;1.40;0.80;;;13.30;75.90;;;;;;6211991;23;20401;-71
2023/04/02 01:39:28;;;;;;;1.87;1.17;;;13.30;75.90;;;;;;6211450;23;20929;-71
2023/04/02 01:42:03;;;;;;;2.00;1.07;;;13.30;75.90;;;;;;6212467;23;20384;-70
2023/04/02 01:44:39;;;;;;;0.87;0.70;;;13.30;75.90;;;;;;6211354;23;20416;-71
2023/04/02 01:47:11;;;;;;;0.70;0.70;;;13.30;75.90;;;;;;6211907;23;20431;-71
2023/04/02 01:49:39;;;;;;;1.27;1.07;;;13.30;75.90;;;;;;6211768;23;20396;-71
2023/04/02 01:52:06;;;;;;;3.93;1.10;;;13.20;75.90;;;;;;6211193;23;20503;-70
2023/04/02 01:54:36;;;;;;;2.43;0.90;;;13.20;76.60;;;;;;6211696;23;20886;-71
2023/04/02 01:57:03;;;;;;;1.13;1.03;;;13.10;77.30;;;;;;6211802;23;20745;-70
2023/04/02 01:59:33;;;;;;;1.90;0.87;;;13.10;78.20;;;;;;6212087;23;20564;-70
2023/04/02 02:02:02;;;;;;;2.20;0.80;;;13.20;77.50;;;;;;6211703;23;20959;-69
2023/04/02 02:04:29;;;;;;;1.17;0.90;;;13.20;77.60;;;;;;6211924;23;20413;-70
2023/04/02 02:06:59;;;;;;;0.90;0.90;;;13.30;77.40;;;;;;6212281;23;20709;-70
2023/04/02 02:09:29;;;;;;;1.10;1.00;;;13.30;77.10;;;;;;6212205;23;20440;-70
2023/04/02 02:11:58;;;;;;;0.70;0.70;;;13.40;76.90;;;;;;6211595;23;20703;-71
2023/04/02 02:14:26;;;;;;;0.67;0.67;;;13.40;76.70;;;;;;6211575;23;20995;-70
2023/04/02 02:16:56;;;;;;;0.90;0.90;;;13.40;76.50;;;;;;6212029;23;20425;-71
2023/04/02 02:19:28;;;;;;;1.50;0.97;;;13.40;76.40;;;;;;6211797;23;20397;-71
2023/04/02 02:21:59;;;;;;;0.87;0.87;;;13.50;76.30;;;;;;6212059;23;20538;-71
2023/04/02 02:24:31;;;;;;;1.97;1.40;;;13.50;76.30;;;;;;6211658;23;20395;-70
2023/04/02 02:27:29;;;;;;;1.80;1.00;;;13.40;76.20;;;;;;6210913;23;20443;-70
2023/04/02 02:30:02;;;;;;;0.73;0.73;;;13.40;77.00;;;;;;6211411;23;20955;-71
2023/04/02 02:32:33;;;;;;;1.00;0.90;;;13.30;77.20;;;;;;6211584;23;20389;-70
2023/04/02 02:35:03;;;;;;;1.20;1.10;;;13.30;77.50;;;;;;6211842;23;20393;-70
2023/04/02 02:37:38;;;;;;;1.10;1.00;;;13.30;77.60;;;;;;6211653;23;20484;-71
2023/04/02 02:40:11;;;;;;;1.10;1.10;;;13.20;77.90;;;;;;6209757;23;21376;-70
2023/04/02 02:42:42;;;;;;;1.07;0.93;;;13.20;78.00;;;;;;6211322;23;20451;-69
2023/04/02 02:45:15;;;;;;;1.83;1.10;;;13.20;78.40;;;;;;6211316;23;20750;-71
2023/04/02 02:47:45;;;;;;;1.17;0.97;;;13.20;78.50;;;;;;6211004;23;20924;-70
2023/04/02 02:50:19;;;;;;;1.23;0.90;;;13.20;78.80;;;;;;6211238;23;20411;-71
2023/04/02 02:52:53;;;;;;;1.57;1.03;;;13.20;79.20;;;;;;6211776;23;20420;-70
2023/04/02 02:55:26;;;;;;;1.50;1.40;;;13.00;79.30;;;;;;6211040;23;20393;-70
2023/04/02 02:57:56;;;;;;;3.63;1.27;;;13.20;79.60;;;;;;6211446;23;20421;-70
2023/04/02 03:00:24;;;;;;;1.83;1.00;;;13.10;79.70;;;;;;6211255;23;20469;-71
2023/04/02 03:02:55;;;;;;;1.20;1.10;;;13.10;79.90;;;;;;6211198;23;20417;-70
2023/04/02 03:05:24;;;;;;;1.03;0.90;;;13.10;80.20;;;;;;6211070;23;20411;-71
2023/04/02 03:07:54;;;;;;;1.50;0.90;;;13.10;80.30;;;;;;6212611;23;20440;-70
2023/04/02 03:10:29;;;;;;;1.17;1.00;;;13.10;80.20;;;;;;6213394;23;20409;-70
2023/04/02 03:13:04;;;;;;;1.23;1.13;;;13.10;80.40;;;;;;6212934;23;20399;-71
2023/04/02 03:15:37;;;;;;;1.40;1.30;;;13.10;80.70;;;;;;6213055;23;20475;-72
2023/04/02 03:18:11;;;;;;;1.27;1.10;;;13.10;80.70;;;;;;6213100;23;20389;-71
2023/04/02 03:20:46;;;;;;;1.47;0.90;;;13.10;80.70;;;;;;6212848;23;20389;-71
2023/04/02 03:23:22;;;;;;;1.00;0.97;;;13.10;80.80;;;;;;6211224;23;20695;-71
2023/04/02 03:25:56;;;;;;;1.07;1.00;;;13.10;80.70;;;;;;6212498;23;20779;-71
2023/04/02 03:28:28;;;;;;;1.30;1.00;;;13.20;80.90;;;;;;6212531;23;20436;-71
2023/04/02 03:30:59;;;;;;;1.60;1.50;;;13.20;80.90;;;;;;6213509;23;20400;-71
2023/04/02 03:33:31;;;;;;;1.40;1.20;;;13.20;80.80;;;;;;6212797;23;20741;-71
2023/04/02 03:36:03;;;;;;;1.90;1.27;;;13.20;80.90;;;;;;6212826;23;20397;-71
2023/04/02 03:38:34;;;;;;;2.13;1.30;;;13.20;80.90;;;;;;6212589;23;20462;-71
2023/04/02 03:41:06;;;;;;;2.43;1.50;;;13.20;80.80;;;;;;6213293;23;20477;-71
2023/04/02 03:43:39;;;;;;;2.27;1.40;;;13.10;80.80;;;;;;6213351;23;20477;-70
2023/04/02 03:46:22;;;;;;;1.93;1.20;;;13.10;81.10;;;;;;6213756;23;20427;-71
2023/04/02 03:48:54;;;;;;;1.40;1.17;;;13.10;81.30;;;;;;6212739;23;20435;-70
2023/04/02 03:51:25;;;;;;;1.23;1.10;;;13.10;81.20;;;;;;6211778;23;20412;-71
2023/04/02 03:53:52;;;;;;;2.47;1.27;;;13.10;81.90;;;;;;6212728;23;20393;-71
2023/04/02 03:56:27;;;;;;;1.30;1.20;;;13.20;81.00;;;;;;6213208;23;20751;-70
2023/04/02 03:59:05;;;;;;;2.33;1.33;;;13.20;80.90;;;;;;6212848;23;20385;-70
2023/04/02 04:01:36;;;;;;;1.03;1.00;;;13.20;80.90;;;;;;6213306;23;20393;-70
2023/04/02 04:04:10;;;;;;;1.67;1.20;;;13.10;80.80;;;;;;6213104;23;20415;-70
2023/04/02 04:06:41;;;;;;;1.53;1.30;;;13.20;80.90;;;;;;6212885;23;20468;-71
2023/04/02 04:09:11;;;;;;;2.27;1.13;;;13.30;80.90;;;;;;6212632;23;20507;-71
2023/04/02 04:11:45;;;;;;;2.77;1.30;;;13.30;80.90;;;;;;6213152;23;20487;-71
2023/04/02 04:14:18;;;;;;;1.53;1.43;;;13.30;80.70;;;;;;6212664;23;20425;-71
2023/04/02 04:16:52;;;;;;;1.43;1.20;;;13.30;80.80;;;;;;6213552;23;20400;-71
2023/04/02 04:19:28;;;;;;;1.60;1.40;;;13.30;80.50;;;;;;6212841;23;20398;-71
2023/04/02 04:22:09;;;;;;;2.33;1.37;;;13.30;80.60;;;;;;6212807;23;20749;-71
2023/04/02 04:24:38;;;;;;;3.43;1.20;;;13.30;80.80;;;;;;6212732;23;20491;-70
2023/04/02 04:27:09;;;;;;;1.70;1.30;;;13.30;80.70;;;;;;6212829;23;20409;-70
2023/04/02 04:29:44;;;;;;;2.10;1.50;;;13.30;81.20;;;;;;6212097;23;20432;-70
2023/04/02 04:32:18;;;;;;;2.33;1.73;;;13.20;81.50;;;;;;6212910;23;20436;-71
2023/04/02 04:34:50;;;;;;;1.87;1.60;;;13.20;81.80;;;;;;6213024;23;20397;-71
2023/04/02 04:37:23;;;;;;;1.40;1.30;;;13.30;81.90;;;;;;6212572;23;20707;-71
2023/04/02 04:39:55;;;;;;;3.37;1.47;;;13.30;81.80;;;;;;6211120;23;20456;-70
2023/04/02 04:42:25;;;;;;;2.33;1.50;;;13.30;81.70;;;;;;6211981;23;20389;-70
2023/04/02 04:44:58;;;;;;;1.70;1.60;;;13.30;81.70;;;;;;6212577;23;20408;-71
2023/04/02 04:47:32;;;;;;;2.00;1.47;;;13.30;81.80;;;;;;6212451;23;20519;-70
2023/04/02 04:50:07;;;;;;;2.07;1.40;;;13.30;82.00;;;;;;6211852;23;20439;-70
2023/04/02 04:52:38;;;;;;;4.60;1.40;;;13.30;81.90;;;;;;6212868;23;20763;-70
2023/04/02 04:55:25;;;;;;;1.93;1.40;;;13.30;81.90;;;;;;6213596;23;20393;-71
2023/04/02 04:57:57;;;;;;;2.70;1.30;;;13.30;82.00;;;;;;6213149;23;20397;-70
2023/04/02 05:00:33;;;;;;;2.13;1.20;;;13.30;81.70;;;;;;6212215;23;20432;-71
2023/04/02 05:03:08;;;;;;;2.90;1.23;;;13.30;81.70;;;;;;6213095;23;20431;-70
2023/04/02 05:05:40;;;;;;;1.40;1.23;;;13.30;81.70;;;;;;6211543;23;20421;-70
2023/04/02 05:08:13;;;;;;;1.93;1.50;;;13.30;81.80;;;;;;6213242;23;20389;-70
2023/04/02 05:10:47;;;;;;;1.90;1.70;;;13.30;81.90;;;;;;6212564;23;20417;-71
2023/04/02 05:13:20;;;;;;;2.27;1.70;;;13.30;81.60;;;;;;6212245;23;20400;-71
2023/04/02 05:15:54;;;;;;;2.73;1.40;;;13.30;81.80;;;;;;6212110;23;20448;-71
2023/04/02 05:18:27;;;;;;;1.70;1.50;;;13.30;81.90;;;;;;6212140;23;20444;-72
2023/04/02 05:21:00;;;;;;;3.90;1.47;;;13.30;81.60;;;;;;6212165;23;20775;-71
2023/04/02 05:23:29;;;;;;;3.90;1.30;;;13.20;81.50;;;;;;6212241;23;20393;-71
2023/04/02 05:26:03;;;;;;;3.27;1.27;;;13.20;81.60;;;;;;6211455;23;20411;-70
2023/04/02 05:28:34;;;;;;;2.23;1.67;;;13.20;81.80;;;;;;6212036;23;20441;-71
2023/04/02 05:31:06;;;;;;;1.90;1.40;;;13.30;81.60;;;;;;6212226;23;20455;-70
2023/04/02 05:33:35;;;;;;;2.27;1.37;;;13.30;81.40;;;;;;6212001;23;20857;-70
2023/04/02 05:36:07;;;;;;;4.33;1.60;;;13.20;82.20;;;;;;6211402;23;20415;-70
2023/04/02 05:38:37;;;;;;;2.63;1.40;;;13.20;81.80;;;;;;6211282;23;20385;-71
2023/04/02 05:41:11;;;;;;;3.03;1.50;;;13.20;82.10;;;;;;6212523;23;20492;-71
2023/04/02 05:43:44;;;;;;;2.73;1.60;;;13.20;82.40;;;;;;6211761;23;20445;-72
2023/04/02 05:46:17;;;;;;;3.40;1.70;;;13.30;82.40;;;;;;6212351;23;20484;-71
2023/04/02 05:48:48;;;;;;;1.43;1.33;;;13.30;82.50;;;;;;6158786;23;20527;-70
2023/04/02 05:51:22;;;;;;;2.53;1.67;;;13.30;82.50;;;;;;6211489;23;20480;-70
2023/04/02 05:53:54;;;;;;;1.50;1.40;;;13.30;82.70;;;;;;6211893;23;20389;-70
2023/04/02 05:56:24;;;;;;;2.07;1.60;;;13.30;82.70;;;;;;6211862;23;20399;-70
2023/04/02 05:58:56;;;;;;;1.77;1.67;;;13.20;83.20;;;;;;6212188;23;20401;-71
2023/04/02 06:01:36;;;;;;;1.60;1.50;;;13.20;83.40;;;;;;6211719;23;20863;-71
2023/04/02 06:04:08;;;;;;;2.23;1.53;;;13.30;83.50;;;;;;6211959;23;20858;-71
2023/04/02 06:06:51;;;;;;;1.53;1.43;;;13.30;83.00;;;;;;6213183;23;20417;-71
2023/04/02 06:09:27;;;;;;;3.67;1.50;;;13.30;82.80;;;;;;6211946;23;20455;-71
2023/04/02 06:11:59;;;;;;;1.97;1.63;;;13.30;82.70;;;;;;6212256;23;20403;-71
2023/04/02 06:14:26;;;;;;;2.47;1.60;;;13.20;82.60;;;;;;6211842;23;20480;-71
2023/04/02 06:16:53;;;;;;;2.27;1.77;;;13.20;82.80;;;;;;6212618;23;20495;-70
2023/04/02 06:19:25;;;;;;;1.90;1.63;;;13.20;82.80;;;;;;6211961;23;20405;-70
2023/04/02 06:22:00;;;;;;;2.87;1.97;;;13.20;82.90;;;;;;6211531;23;20393;-69
2023/04/02 06:24:30;;;;;;;4.27;2.00;;;13.20;82.90;;;;;;6212702;23;20479;-71
2023/04/02 06:27:02;;;;;;;3.47;1.60;;;13.30;82.80;;;;;;6212961;23;20437;-70
2023/04/02 06:29:37;;;;;;;2.00;1.43;;;13.40;82.80;;;;;;6211829;23;20516;-71
2023/04/02 06:32:06;;;;;;;1.70;1.60;;;13.50;82.70;;;;;;6210897;23;20460;-71
2023/04/02 06:34:36;;;;;;;2.23;1.80;;;13.50;82.10;;;;;;6212115;23;20492;-71
2023/04/02 06:37:12;;;;;;;2.10;1.30;;;13.50;82.20;;;;;;6211898;23;20410;-71
2023/04/02 06:39:42;;;;;;;2.40;1.60;;;13.50;82.30;;;;;;6211541;23;20438;-70
2023/04/02 06:42:13;;;;;;;1.77;1.67;;;13.50;82.50;;;;;;6212894;23;20459;-69
2023/04/02 06:44:41;;;;;;;2.50;1.70;;;13.40;82.30;;;;;;6213147;23;20404;-71
2023/04/02 06:47:16;;;;;;;1.90;1.57;;;13.50;82.50;;;;;;6213474;23;20784;-71
2023/04/02 06:49:48;;;;;;;2.40;1.90;;;13.60;82.50;;;;;;6213000;23;20947;-70
2023/04/02 06:52:23;;;;;;;3.17;2.13;;;13.60;82.20;;;;;;6213538;23;20427;-70
2023/04/02 06:54:50;;;;;;;2.90;1.70;;;13.60;82.00;;;;;;6214236;23;20407;-70
2023/04/02 06:57:17;;;;;;;2.13;1.73;;;13.60;82.10;;;;;;6212389;23;20413;-70
2023/04/02 06:59:44;;;;;;;2.53;1.67;;;13.60;82.00;;;;;;6212668;23;20405;-70
2023/04/02 07:02:24;;;;;;;3.30;2.10;;;13.60;82.00;;;;;;6213124;23;20458;-70
2023/04/02 07:04:52;;;;;;;1.90;1.80;;;13.60;81.80;;;;;;6213898;23;20399;-71
2023/04/02 07:07:20;;;;;;;2.83;1.97;;;13.50;82.00;;;;;;6213000;23;20515;-69
2023/04/02 07:09:47;;;;;;;3.93;1.93;;;13.50;82.40;;;;;;6212772;23;20967;-70
2023/04/02 07:12:14;;;;;;;1.90;1.70;;;13.60;82.50;;;;;;6213044;23;20405;-70
2023/04/02 07:14:41;;;;;;;1.90;1.70;;;13.60;82.30;;;;;;6213665;23;20520;-71
2023/04/02 07:17:14;;;;;;;1.93;1.73;;;13.50;82.30;;;;;;6212958;23;20992;-69
2023/04/02 07:19:43;;;;;;;2.50;2.30;;;13.60;83.50;;;;;;6213000;23;20480;-70
2023/04/02 07:22:10;;;;;;;2.73;1.70;;;13.60;82.30;;;;;;6213283;23;20409;-69
2023/04/02 07:24:38;;;;;;;3.37;1.80;;;13.60;82.40;;;;;;6213794;23;20515;-70
2023/04/02 07:27:05;;;;;;;2.10;1.90;;;13.60;82.30;;;;;;6213421;23;20465;-70
2023/04/02 07:29:32;;;;;;;1.70;1.60;;;13.60;82.50;;;;;;6212824;23;20862;-69
2023/04/02 07:31:58;;;;;;;2.00;1.80;;;13.70;82.30;;;;;;6212125;23;20416;-70
2023/04/02 07:34:25;;;;;;;3.87;1.70;;;13.80;82.50;;;;;;6213278;23;20431;-71
2023/04/02 07:36:52;;;;;;;2.10;1.40;;;13.80;81.80;;;;;;6212601;23;20409;-69
2023/04/02 07:39:19;;;;;;;2.23;1.87;;;13.80;81.90;;;;;;6212424;23;20452;-69
2023/04/02 07:41:55;;;;;;;2.37;1.90;;;13.90;81.70;;;;;;6212913;23;20419;-69
2023/04/02 07:44:22;;;;;;;3.93;2.27;;;13.90;81.60;;;;;;6213376;23;20432;-69
2023/04/02 07:46:49;;;;;;;1.60;1.50;;;13.90;81.40;;;;;;6212264;23;20409;-69
2023/04/02 07:49:16;;;;;;;3.40;2.00;;;14.00;81.10;;;;;;6213460;23;20457;-69
2023/04/02 07:51:43;;;;;;;2.40;2.20;;;14.00;81.00;;;;;;6212917;23;20424;-70
2023/04/02 07:54:10;;;;;;;2.60;1.93;;;14.00;80.80;;;;;;6211943;23;20412;-69
2023/04/02 07:56:38;;;;;;;1.83;1.73;;;14.10;81.10;;;;;;6212263;23;20512;-69
2023/04/02 07:59:06;;;;;;;1.60;1.50;;;14.10;80.50;;;;;;6212143;23;20887;-70
2023/04/02 08:01:34;;;;;;;1.53;1.43;;;14.10;80.40;;;;;;6213158;23;20415;-70
2023/04/02 08:04:02;;;;;;;3.07;1.80;;;14.00;80.50;;;;;;6212753;23;20409;-69
2023/04/02 08:06:29;;;;;;;1.70;1.60;;;14.00;80.80;;;;;;6213996;23;20479;-70
2023/04/02 08:08:56;;;;;;;2.40;1.70;;;14.00;80.80;;;;;;6213115;23;20924;-70
2023/04/02 08:11:23;;;;;;;3.30;1.87;;;13.90;80.40;;;;;;6212436;23;20404;-69
2023/04/02 08:13:50;;;;;;;3.73;1.70;;;13.90;80.70;;;;;;6212393;23;20717;-70
2023/04/02 08:16:19;;;;;;;3.97;1.67;;;13.80;80.70;;;;;;6213488;23;20464;-69
2023/04/02 08:18:46;;;;;;;2.73;1.40;;;13.90;80.90;;;;;;6212749;23;20463;-70
2023/04/02 08:21:13;;;;;;;2.43;1.83;;;14.10;80.90;;;;;;6211560;23;20719;-71
2023/04/02 08:23:41;;;;;;;1.90;1.70;;;14.20;80.40;;;;;;6211536;23;20416;-73
2023/04/02 08:26:08;;;;;;;1.60;1.50;;;14.20;79.90;;;;;;6160681;23;20483;-70
2023/04/02 08:28:35;;;;;;;1.60;1.50;;;14.20;79.80;;;;;;6212030;23;20409;-70
2023/04/02 08:31:03;;;;;;;3.37;2.00;;;14.20;79.50;;;;;;6212679;23;20447;-70
2023/04/02 08:33:31;;;;;;;1.70;1.60;;;14.30;79.30;;;;;;6212316;23;20415;-65
2023/04/02 08:35:58;;;;;;;1.90;1.70;;;14.30;79.30;;;;;;6212790;23;20411;-68
2023/04/02 08:38:25;;;;;;;2.20;1.70;;;14.40;79.30;;;;;;6212246;23;20497;-69
2023/04/02 08:40:56;;;;;;;1.70;1.60;;;14.50;79.00;;;;;;6212684;23;20774;-68
2023/04/02 08:43:37;;;;;;;2.17;1.97;;;14.40;78.30;;;;;;6211734;23;20413;-70
2023/04/02 08:46:11;;;;;;;3.30;2.87;;;14.40;78.10;;;;;;6213070;23;20394;-73
2023/04/02 08:48:44;;;;;;;1.80;1.70;;;14.30;78.30;;;;;;6211427;23;20496;-74
2023/04/02 08:51:22;;;;;;;1.40;1.30;;;14.30;77.60;;;;;;6213025;23;20959;-68
2023/04/02 08:53:49;;;;;;;1.97;1.43;;;14.40;77.70;;;;;;6212038;23;20396;-71
2023/04/02 08:56:19;;;;;;;1.30;1.20;;;14.60;77.30;;;;;;6212523;23;20411;-68
2023/04/02 08:58:49;;;;;;;2.27;1.40;;;14.60;76.70;;;;;;6212119;23;20413;-71
2023/04/02 09:01:27;;;;;;;1.30;1.20;;;14.80;76.90;;;;;;6212355;23;20413;-71
2023/04/02 09:03:58;;;;;;;1.70;1.50;;;14.90;76.40;;;;;;6212048;23;20397;-68
2023/04/02 09:06:26;;;;;;;1.70;1.60;;;15.00;75.40;;;;;;6212419;23;20421;-71
2023/04/02 09:08:55;;;;;;;1.43;1.10;;;15.00;75.20;;;;;;6212405;23;20428;-72
2023/04/02 09:11:24;;;;;;;3.73;1.40;;;15.10;74.80;;;;;;6211596;23;20519;-73
2023/04/02 09:13:56;;;;;;;1.47;1.27;;;15.20;75.00;;;;;;6209896;23;21180;-71
2023/04/02 09:16:42;;;;;;;1.30;1.20;;;15.30;74.00;;;;;;6209470;23;20464;-69
2023/04/02 09:19:19;;;;;;;1.53;1.33;;;15.30;73.80;;;;;;6211040;23;20412;-72
2023/04/02 09:21:55;;;;;;;1.37;1.27;;;15.30;73.40;;;;;;6210892;23;20440;-72
2023/04/02 09:24:22;;;;;;;4.40;3.30;;;15.40;73.70;;;;;;6210438;23;21036;-72
2023/04/02 09:26:49;;;;;;;2.97;1.37;;;15.40;73.00;;;;;;6210812;23;20405;-68
2023/04/02 09:29:39;;;;;;;1.60;1.23;;;15.40;72.50;;;;;;6211242;23;20421;-68
2023/04/02 09:32:38;;;;;;;2.73;1.50;;;15.30;72.70;;;;;;6211479;23;20482;-69
2023/04/02 09:35:14;;;;;;;2.67;1.63;;;15.20;72.50;;;;;;6190921;23;20453;-68
2023/04/02 09:37:42;;;;;;;2.67;2.47;;;15.20;71.90;;;;;;6210887;23;20447;-68
2023/04/02 09:40:24;;;;;;;3.87;2.60;;;15.10;72.70;;;;;;6211640;23;20492;-68
2023/04/02 09:43:02;;;;;;;1.23;1.13;;;15.00;72.90;;;;;;6211868;23;20396;-68
2023/04/02 09:45:30;;;;;;;1.40;1.20;;;15.00;73.60;;;;;;6211719;23;20400;-69
2023/04/02 09:47:57;;;;;;;2.33;1.63;;;15.10;74.20;;;;;;6212597;23;20503;-71
2023/04/02 09:50:30;;;;;;;1.50;1.40;;;15.20;72.90;;;;;;6211795;23;20992;-72
2023/04/02 09:52:58;;;;;;;1.27;1.07;;;15.20;72.40;;;;;;6212373;23;21027;-71
2023/04/02 09:55:27;;;;;;;1.00;1.00;;;15.20;73.20;;;;;;6210659;23;20432;-70
2023/04/02 09:58:13;;;;;;;1.00;0.90;;;15.30;72.40;;;;;;6211605;23;20409;-70
2023/04/02 10:00:49;;;;;;;0.90;0.90;;;15.30;70.90;;;;;;6211047;23;20471;-71
2023/04/02 10:03:23;;;;;;;0.90;0.90;;;15.40;71.30;;;;;;6212287;23;20415;-70
2023/04/02 10:06:08;;;;;;;1.10;1.10;;;15.60;72.20;;;;;;6212045;23;20390;-71
2023/04/02 10:08:35;;;;;;;0.70;0.70;;;15.80;71.80;;;;;;6211485;23;20393;-71
2023/04/02 10:11:04;;;;;;;1.10;1.00;;;16.00;71.10;;;;;;6158856;23;20441;-70
2023/04/02 10:13:38;;;;;;;3.63;1.27;;;16.10;71.10;;;;;;6212316;23;20409;-71
2023/04/02 10:16:12;;;;;;;1.50;1.40;;;16.30;70.70;;;;;;6211713;23;20392;-70
2023/04/02 10:18:46;;;;;;;0.80;0.80;;;16.40;68.90;;;;;;6213957;23;20420;-71
2023/04/02 10:21:19;;;;;;;1.53;1.07;;;16.30;68.20;;;;;;6214339;23;20451;-70
2023/04/02 10:23:46;;;;;;;0.60;0.60;;;16.40;67.70;;;;;;6213589;23;20699;-70
2023/04/02 10:26:31;;;;;;;1.30;1.20;;;16.50;69.00;;;;;;6213178;23;20412;-70
2023/04/02 10:29:26;;;;;;;1.80;1.50;;;16.80;67.90;;;;;;6213042;23;20397;-71
2023/04/02 10:32:01;;;;;;;0.73;0.73;;;17.00;67.80;;;;;;6212480;23;20428;-71
2023/04/02 10:34:37;;;;;;;0.80;0.80;;;17.10;66.50;;;;;;6213054;23;20868;-71
2023/04/02 10:37:20;;;;;;;0.60;0.60;;;17.30;66.40;;;;;;6213673;23;20475;-71
2023/04/02 10:39:51;;;;;;;0.70;0.70;;;17.50;66.50;;;;;;6213093;23;20435;-70
2023/04/02 10:42:26;;;;;;;0.60;0.60;;;17.60;62.30;;;;;;6214002;23;20403;-71
2023/04/02 10:44:59;;;;;;;0.97;0.83;;;17.60;63.80;;;;;;6214152;23;20417;-70
2023/04/02 10:47:37;;;;;;;1.67;0.73;;;17.60;63.00;;;;;;6213532;23;20504;-70
2023/04/02 10:50:18;;;;;;;0.50;0.50;;;17.70;62.60;;;;;;6213435;23;20735;-70
2023/04/02 10:52:53;;;;;;;1.10;1.10;;;17.90;63.30;;;;;;6212839;23;20455;-70
2023/04/02 10:55:26;;;;;;;1.87;1.10;;;18.10;63.10;;;;;;6213516;23;20624;-70
2023/04/02 10:57:57;;;;;;;0.87;0.87;;;18.40;63.00;;;;;;6213942;23;20420;-71
2023/04/02 11:00:27;;;;;;;0.37;0.37;;;18.50;60.50;;;;;;6213098;23;20928;-70
2023/04/02 11:02:58;;;;;;;0.60;0.60;;;18.60;60.60;;;;;;6211862;23;20248;-71
2023/04/02 11:05:35;;;;;;;0.80;0.50;;;18.70;60.30;;;;;;6213080;23;20397;-70
2023/04/02 11:08:13;;;;;;;1.00;0.93;;;18.80;60.20;;;;;;6213399;23;20249;-70
2023/04/02 11:10:46;;;;;;;0.57;0.57;;;19.00;59.50;;;;;;6213559;23;20478;-71
2023/04/02 11:13:20;;;;;;;1.10;1.00;;;18.80;58.00;;;;;;6212579;23;20428;-72
2023/04/02 11:15:47;;;;;;;0.70;0.70;;;18.50;58.00;;;;;;6212522;23;20248;-72
2023/04/02 11:18:33;;;;;;;1.10;1.00;;;18.40;59.60;;;;;;6213511;23;20495;-72
2023/04/02 11:21:05;;;;;;;1.13;1.03;;;18.60;59.40;;;;;;6213676;23;20169;-73
2023/04/02 11:23:36;;;;;;;0.90;0.90;;;18.70;58.50;;;;;;6212173;23;20433;-72
2023/04/02 11:26:42;;;;;;;0.70;0.70;;;18.70;58.20;;;;;;6213596;23;20162;-72
2023/04/02 11:29:19;;;;;;;1.33;0.90;;;18.80;58.30;;;;;;6212422;23;20253;-72
2023/04/02 11:31:47;;;;;;;1.43;0.70;;;18.80;59.20;;;;;;6213535;23;20429;-72
2023/04/02 11:34:16;;;;;;;1.00;0.87;;;18.90;59.80;;;;;;6213868;23;20408;-71
2023/04/02 11:37:01;;;;;;;1.17;0.90;;;18.90;60.70;;;;;;6213108;23;20554;-72
2023/04/02 11:39:52;;;;;;;0.97;0.87;;;18.90;61.30;;;;;;6211760;23;20404;-68
2023/04/02 11:42:25;;;;;;;0.80;0.80;;;18.80;61.70;;;;;;6212106;23;20397;-69
2023/04/02 11:44:52;;;;;;;0.90;0.90;;;18.70;61.70;;;;;;6211250;23;20882;-72
2023/04/02 11:47:22;;;;;;;1.73;1.50;;;18.70;62.00;;;;;;6209506;23;20417;-71
2023/04/02 11:50:01;;;;;;;1.60;1.50;;;18.60;62.50;;;;;;6212240;23;20413;-72
2023/04/02 11:52:33;;;;;;;1.13;1.00;;;18.50;62.80;;;;;;6212195;23;20186;-71
2023/04/02 11:55:27;;;;;;;3.77;0.97;;;18.40;62.80;;;;;;6213309;23;20683;-70
2023/04/02 11:58:31;;;;;;;0.70;0.70;;;18.30;62.00;;;;;;6213066;23;21065;-73
2023/04/02 12:01:37;;;;;;;2.03;1.00;;;18.20;62.30;;;;;;6212375;23;20404;-73
2023/04/02 12:04:42;;;;;;;0.73;0.73;;;18.20;63.10;;;;;;6212986;23;21071;-71
2023/04/02 12:07:35;;;;;;;0.90;0.77;;;18.10;63.60;;;;;;6196317;23;20423;-72
2023/04/02 12:10:05;;;;;;;0.97;0.87;;;18.00;63.20;;;;;;6210884;23;20439;-72
2023/04/02 12:12:37;;;;;;;1.20;0.90;;;18.00;63.60;;;;;;6212470;23;20429;-71
2023/04/02 12:15:09;;;;;;;1.17;0.90;;;18.00;64.00;;;;;;6211317;23;20401;-73
2023/04/02 12:17:37;;;;;;;1.07;0.90;;;18.00;64.70;;;;;;6212496;23;20722;-73
2023/04/02 12:20:20;;;;;;;0.90;0.90;;;18.00;64.90;;;;;;6210982;23;20919;-71
2023/04/02 12:22:49;;;;;;;0.60;0.60;;;18.00;64.80;;;;;;6212070;23;20404;-71
2023/04/02 12:25:25;;;;;;;0.70;0.70;;;18.00;64.00;;;;;;6210220;23;20501;-72
2023/04/02 12:28:06;;;;;;;0.90;0.90;;;18.00;63.90;;;;;;6211302;23;20393;-72
2023/04/02 12:30:33;;;;;;;0.80;0.80;;;18.10;63.70;;;;;;6212374;23;20508;-72
2023/04/02 12:33:15;;;;;;;0.63;0.60;;;18.10;63.60;;;;;;6213106;23;20487;-72
2023/04/02 12:35:45;;;;;;;0.80;0.73;;;18.10;63.70;;;;;;6212519;23;20397;-72
2023/04/02 12:38:23;;;;;;;0.77;0.70;;;18.20;63.70;;;;;;6213031;23;20455;-71
2023/04/02 12:40:54;;;;;;;0.87;0.87;;;18.30;63.80;;;;;;6211941;23;20401;-72
2023/04/02 12:43:27;;;;;;;2.77;1.20;;;18.40;63.60;;;;;;6212950;23;20409;-71
2023/04/02 12:45:55;;;;;;;1.30;1.20;;;18.40;63.00;;;;;;6212661;23;20476;-72
2023/04/02 12:48:23;;;;;;;1.13;1.10;;;18.60;63.30;;;;;;6212208;23;20783;-72
2023/04/02 12:50:50;;;;;;;1.33;1.23;;;18.60;63.30;;;;;;6211953;23;20943;-71
2023/04/02 12:53:24;;;;;;;1.90;1.80;;;18.50;62.70;;;;;;6212836;23;20897;-73
2023/04/02 12:55:53;;;;;;;1.87;1.67;;;18.40;64.30;;;;;;6212895;23;20439;-73
2023/04/02 12:58:42;;;;;;;2.43;1.93;;;18.40;65.80;;;;;;6212731;23;20413;-73
2023/04/02 13:01:15;;;;;;;3.13;2.20;;;18.30;66.70;;;;;;6212450;23;20400;-72
2023/04/02 13:03:41;;;;;;;2.70;2.50;;;18.10;67.70;;;;;;6212707;23;20225;-72
2023/04/02 13:06:22;;;;;;;2.50;2.33;;;18.10;68.70;;;;;;6212731;23;20409;-73
2023/04/02 13:08:50;;;;;;;2.93;2.73;;;17.90;69.80;;;;;;6212836;23;20472;-72
2023/04/02 13:11:17;;;;;;;2.57;2.37;;;17.80;70.40;;;;;;6211724;23;20444;-73
2023/04/02 13:13:47;;;;;;;2.93;2.23;;;17.70;70.90;;;;;;6212860;23;20411;-74
2023/04/02 13:16:32;;;;;;;2.80;2.60;;;17.60;71.50;;;;;;6212781;23;20763;-71
2023/04/02 13:19:22;;;;;;;2.80;2.60;;;17.50;72.00;;;;;;6210431;23;20415;-72